メインページ
METAR-TAF:

METAR-TAF

空港 :

ジブチ国際空港

ジブチ, ジブチ

緯度: 11-33N, 経度: 043-10E, 海抜: 49m

現時点の気象観測

当レポートは1時間31分前の09:00(UTC)に作成
北東の風 8kt
気温 37°C
湿度 54%
気圧 1005 hPa
視程10km以上
1,500メートル以下は雲なし、積乱雲なし

METAR: HDAM 190900Z 05008KT CAVOK 37/26 Q1005

時間: 13:31 (10:31 UTC)

予報

当レポートは5時間31分前の05:00(UTC)に作成
予報は19日の 06時(UTC)から 20日の 06時(UTC)まで有効
西の風 10kt
視程: 8000m
煙霧
19日の 15時(UTC)から 19日の 18時(UTC)まで徐々に
西の風 10kt
視程: 6000m
19日の 18時(UTC)から 19日の 21時(UTC)まで徐々に
変向風 3kt
20日の 00時(UTC)から 20日の 06時(UTC)まで徐々に
の風 kt
視程10km以上
1,500メートル以下は雲なし、積乱雲なし

TAF: HDAM 190500Z 1906/2006 28010KT 8000 HZ NSC BECMG 1915/1918 26010KT 6000 HZ/SA BECMG 1918/1921 VRB03KT BECMG 2000/2006 00000KT CAVOK

4,000以上の空港の気象観測と天気予報(METAR報とTAF報)

利用可能な観測所は地図上に黄色い丸と赤い丸で示す。

丸の上にカーソルを重ねると観測所名を参照できる。

次にクリックすると気象観測と天気予報を参照できる。

マップの切り替え:黒色「×」印の緑ボタンをクリックして拡大、「-」印の緑ボタンをクリックして縮小、緑色の三角印をクリックして隣りの地図に切り替え


METAR-TAF: